Time;durP1;ratioP1;P1;durP2;ratioP2;P2;SDS_P1;SDS_P2;PMS_P1;PMS_P2;Temp;Humidity;BMP_temperature;BMP_pressure;BME280_temperature;BME280_humidity;BME280_pressure;Samples;Min_cycle;Max_cycle;Signal;HPM_P1;HPM_P2
2022/04/11 00:02:00;;;;;;;17.80;7.05;;;;;;;;;;4972421;28;20360;-64
2022/04/11 00:04:26;;;;;;;16.45;6.95;;;;;;;;;;4971863;28;20452;-64
2022/04/11 00:06:51;;;;;;;18.95;7.10;;;;;;;;;;4972167;28;20444;-64
2022/04/11 00:09:17;;;;;;;17.42;7.30;;;;;;;;;;4971963;28;20094;-64
2022/04/11 00:11:42;;;;;;;17.65;7.47;;;;;;;;;;4971616;28;20372;-64
2022/04/11 00:14:07;;;;;;;14.85;6.63;;;;;;;;;;4971726;28;20348;-64
2022/04/11 00:16:33;;;;;;;16.48;6.97;;;;;;;;;;4971853;28;20394;-64
2022/04/11 00:18:58;;;;;;;16.10;6.82;;;;;;;;;;4971814;28;20455;-64
2022/04/11 00:21:23;;;;;;;14.93;7.07;;;;;;;;;;4971697;28;20341;-64
2022/04/11 00:23:49;;;;;;;16.88;6.60;;;;;;;;;;4972045;28;20045;-64
2022/04/11 00:26:14;;;;;;;15.32;6.90;;;;;;;;;;4972053;28;20555;-64
2022/04/11 00:28:40;;;;;;;16.45;6.82;;;;;;;;;;4971606;28;20428;-64
2022/04/11 00:31:05;;;;;;;18.08;7.32;;;;;;;;;;4971940;28;20026;-64
2022/04/11 00:33:30;;;;;;;13.88;7.13;;;;;;;;;;4971575;28;20439;-64
2022/04/11 00:35:56;;;;;;;16.13;7.25;;;;;;;;;;4971960;28;20491;-64
2022/04/11 00:38:21;;;;;;;20.10;7.40;;;;;;;;;;4971295;28;20450;-64
2022/04/11 00:40:46;;;;;;;14.02;6.78;;;;;;;;;;4969948;28;20476;-64
2022/04/11 00:43:33;;;;;;;15.05;6.43;;;;;;;;;;4970920;28;20456;-64
2022/04/11 00:45:59;;;;;;;15.65;7.20;;;;;;;;;;4972157;28;20337;-64
2022/04/11 00:48:24;;;;;;;14.52;6.30;;;;;;;;;;4971699;28;20483;-64
2022/04/11 00:50:57;;;;;;;16.50;7.05;;;;;;;;;;4971391;28;20484;-64
2022/04/11 00:53:24;;;;;;;16.50;7.53;;;;;;;;;;4953260;28;20088;-64
2022/04/11 00:55:50;;;;;;;16.92;7.28;;;;;;;;;;4971627;28;20096;-64
2022/04/11 00:58:16;;;;;;;14.70;6.90;;;;;;;;;;4952867;28;20575;-65
2022/04/11 01:00:42;;;;;;;18.13;8.07;;;;;;;;;;4975190;28;20415;-64
2022/04/11 01:03:08;;;;;;;17.73;7.70;;;;;;;;;;4978317;28;20086;-64
2022/04/11 01:05:34;;;;;;;14.23;6.80;;;;;;;;;;4970929;28;20124;-64
2022/04/11 01:08:05;;;;;;;16.33;7.63;;;;;;;;;;4970804;28;20021;-64
2022/04/11 01:10:31;;;;;;;17.17;7.40;;;;;;;;;;4971005;28;20338;-64
2022/04/11 01:12:56;;;;;;;16.42;7.95;;;;;;;;;;4970678;28;20052;-64
2022/04/11 01:15:22;;;;;;;18.63;7.32;;;;;;;;;;4970824;28;20440;-64
2022/04/11 01:17:47;;;;;;;18.20;7.03;;;;;;;;;;4971085;28;20412;-64
2022/04/11 01:20:13;;;;;;;22.67;7.68;;;;;;;;;;4970284;28;20451;-64
2022/04/11 01:22:39;;;;;;;18.67;7.38;;;;;;;;;;4970598;28;20021;-64
2022/04/11 01:25:05;;;;;;;16.88;6.90;;;;;;;;;;4970334;28;20092;-64
2022/04/11 01:27:31;;;;;;;21.30;8.60;;;;;;;;;;4970507;28;20387;-65
2022/04/11 01:29:57;;;;;;;16.77;7.78;;;;;;;;;;4970266;28;20441;-64
2022/04/11 01:32:22;;;;;;;18.35;8.30;;;;;;;;;;4971002;28;20495;-65
2022/04/11 01:34:47;;;;;;;14.68;6.40;;;;;;;;;;4970110;28;20451;-64
2022/04/11 01:37:13;;;;;;;15.13;6.95;;;;;;;;;;4970432;28;20412;-64
2022/04/11 01:39:38;;;;;;;21.33;8.27;;;;;;;;;;4970277;28;20458;-64
2022/04/11 01:42:04;;;;;;;17.98;7.43;;;;;;;;;;4970462;28;20449;-64
2022/04/11 01:44:29;;;;;;;21.67;7.35;;;;;;;;;;4970197;28;20421;-64
2022/04/11 01:46:54;;;;;;;14.73;6.85;;;;;;;;;;4971599;28;20462;-64
2022/04/11 01:49:20;;;;;;;13.85;7.00;;;;;;;;;;4970034;28;20384;-64
2022/04/11 01:51:45;;;;;;;16.25;7.65;;;;;;;;;;4969614;28;20029;-65
2022/04/11 01:54:10;;;;;;;17.55;7.25;;;;;;;;;;4970084;28;20444;-64
2022/04/11 01:56:36;;;;;;;16.50;7.75;;;;;;;;;;4969735;28;20321;-64
2022/04/11 01:59:01;;;;;;;22.38;8.30;;;;;;;;;;4969952;28;20349;-64
2022/04/11 02:01:26;;;;;;;16.23;7.50;;;;;;;;;;4969833;28;20360;-64
2022/04/11 02:03:52;;;;;;;14.70;7.55;;;;;;;;;;4971119;28;20115;-64
2022/04/11 02:06:17;;;;;;;18.67;7.45;;;;;;;;;;4970456;28;20033;-64
2022/04/11 02:08:42;;;;;;;15.43;6.82;;;;;;;;;;4969797;28;20449;-64
2022/04/11 02:11:08;;;;;;;20.27;8.30;;;;;;;;;;4969386;28;20471;-64
2022/04/11 02:13:33;;;;;;;22.88;8.65;;;;;;;;;;4969944;28;20450;-64
2022/04/11 02:15:59;;;;;;;15.13;7.22;;;;;;;;;;4969701;28;20029;-64
2022/04/11 02:18:24;;;;;;;12.50;6.10;;;;;;;;;;4970816;28;20441;-64
2022/04/11 02:20:50;;;;;;;17.83;6.68;;;;;;;;;;4969426;28;20470;-64
2022/04/11 02:23:15;;;;;;;16.73;7.40;;;;;;;;;;4971013;28;20061;-64
2022/04/11 02:25:40;;;;;;;17.98;7.90;;;;;;;;;;4969102;28;20055;-64
2022/04/11 02:28:07;;;;;;;13.50;6.82;;;;;;;;;;4969715;28;20551;-64
2022/04/11 02:30:33;;;;;;;13.48;6.57;;;;;;;;;;4969346;28;20429;-64
2022/04/11 02:32:58;;;;;;;15.35;6.75;;;;;;;;;;4970358;28;20448;-64
2022/04/11 02:35:24;;;;;;;17.02;7.13;;;;;;;;;;4970639;28;20033;-64
2022/04/11 02:37:49;;;;;;;16.92;7.13;;;;;;;;;;4969356;28;20091;-64
2022/04/11 02:40:16;;;;;;;14.13;6.78;;;;;;;;;;4969205;28;20412;-64
2022/04/11 02:42:43;;;;;;;15.25;6.90;;;;;;;;;;4968426;28;20357;-64
2022/04/11 02:45:09;;;;;;;15.23;7.07;;;;;;;;;;4969807;28;20072;-64
2022/04/11 02:47:34;;;;;;;13.93;6.50;;;;;;;;;;4969423;28;20440;-64
2022/04/11 02:50:00;;;;;;;18.70;7.63;;;;;;;;;;4969358;28;20453;-64
2022/04/11 02:52:25;;;;;;;14.00;6.30;;;;;;;;;;4969398;28;20424;-65
2022/04/11 02:54:50;;;;;;;12.98;6.20;;;;;;;;;;4969201;28;20364;-64
2022/04/11 02:57:15;;;;;;;11.60;6.03;;;;;;;;;;4968785;28;20395;-64
2022/04/11 02:59:41;;;;;;;14.30;6.22;;;;;;;;;;4969849;28;20510;-64
2022/04/11 03:02:06;;;;;;;14.38;6.10;;;;;;;;;;4968786;28;20344;-64
2022/04/11 03:04:31;;;;;;;14.32;5.78;;;;;;;;;;4970446;28;20483;-64
2022/04/11 03:06:57;;;;;;;15.23;6.97;;;;;;;;;;4973151;28;20083;-64
2022/04/11 03:09:22;;;;;;;15.77;6.35;;;;;;;;;;4973509;28;20383;-64
2022/04/11 03:11:48;;;;;;;19.10;6.20;;;;;;;;;;4972662;28;20452;-64
2022/04/11 03:14:13;;;;;;;18.05;7.18;;;;;;;;;;4973568;28;20044;-64
2022/04/11 03:16:40;;;;;;;13.57;6.28;;;;;;;;;;4972725;28;20419;-64
2022/04/11 03:19:06;;;;;;;13.70;6.22;;;;;;;;;;4973199;28;20507;-64
2022/04/11 03:21:31;;;;;;;14.75;6.72;;;;;;;;;;4974590;28;20407;-64
2022/04/11 03:23:57;;;;;;;13.13;6.45;;;;;;;;;;4972750;28;20432;-63
2022/04/11 03:26:22;;;;;;;12.60;5.90;;;;;;;;;;4973235;28;20322;-64
2022/04/11 03:28:47;;;;;;;12.05;5.70;;;;;;;;;;4972522;28;20437;-64
2022/04/11 03:31:13;;;;;;;11.77;6.25;;;;;;;;;;4972577;28;20388;-64
2022/04/11 03:33:38;;;;;;;12.25;5.88;;;;;;;;;;4972923;28;20048;-64
2022/04/11 03:36:04;;;;;;;8.95;5.20;;;;;;;;;;4972465;28;20417;-64
2022/04/11 03:38:29;;;;;;;14.15;6.05;;;;;;;;;;4974647;28;20392;-64
2022/04/11 03:40:54;;;;;;;9.93;5.57;;;;;;;;;;4972213;28;20478;-64
2022/04/11 03:43:20;;;;;;;13.15;5.55;;;;;;;;;;4971895;28;20457;-63
2022/04/11 03:45:45;;;;;;;10.68;5.32;;;;;;;;;;4972280;28;20430;-64
2022/04/11 03:48:10;;;;;;;10.30;4.72;;;;;;;;;;4972755;28;20105;-64
2022/04/11 03:50:36;;;;;;;12.63;5.10;;;;;;;;;;4972838;28;20588;-64
2022/04/11 03:53:01;;;;;;;12.85;5.20;;;;;;;;;;4972479;28;20475;-64
2022/04/11 03:55:26;;;;;;;12.88;5.60;;;;;;;;;;4972403;28;20372;-64
2022/04/11 03:57:52;;;;;;;8.05;4.22;;;;;;;;;;4972151;28;20457;-64
2022/04/11 04:00:17;;;;;;;11.25;5.07;;;;;;;;;;4972220;28;20494;-64
2022/04/11 04:02:43;;;;;;;9.00;4.95;;;;;;;;;;4971732;28;20437;-63
2022/04/11 04:05:09;;;;;;;11.18;5.20;;;;;;;;;;4972753;28;20064;-63
2022/04/11 04:07:36;;;;;;;11.55;5.55;;;;;;;;;;4971760;28;20053;-64
2022/04/11 04:10:02;;;;;;;9.75;5.03;;;;;;;;;;4971957;28;20313;-64
2022/04/11 04:12:28;;;;;;;13.30;6.60;;;;;;;;;;4971617;28;20348;-64
2022/04/11 04:14:53;;;;;;;10.30;5.38;;;;;;;;;;4972368;28;20026;-64
2022/04/11 04:17:18;;;;;;;21.35;5.43;;;;;;;;;;4971776;28;20411;-64
2022/04/11 04:19:44;;;;;;;12.60;5.38;;;;;;;;;;4971851;28;20121;-64
2022/04/11 04:22:09;;;;;;;10.02;4.80;;;;;;;;;;4971974;28;20451;-64
2022/04/11 04:24:36;;;;;;;11.68;5.75;;;;;;;;;;4971898;28;20516;-63
2022/04/11 04:27:03;;;;;;;10.57;4.88;;;;;;;;;;4972502;28;20456;-64
2022/04/11 04:29:28;;;;;;;9.85;4.72;;;;;;;;;;4972571;28;20330;-64
2022/04/11 04:31:54;;;;;;;10.52;4.45;;;;;;;;;;4971683;28;20395;-64
2022/04/11 04:34:20;;;;;;;14.85;5.63;;;;;;;;;;4972420;28;20379;-63
2022/04/11 04:36:46;;;;;;;8.68;4.50;;;;;;;;;;4971200;28;20353;-63
2022/04/11 04:39:12;;;;;;;10.25;4.85;;;;;;;;;;4972204;28;20025;-66
2022/04/11 04:41:37;;;;;;;10.13;4.63;;;;;;;;;;4970911;28;20419;-63
2022/04/11 04:44:04;;;;;;;14.18;5.45;;;;;;;;;;4971216;28;20462;-64
2022/04/11 04:46:29;;;;;;;9.40;4.80;;;;;;;;;;4972172;28;20491;-64
2022/04/11 04:48:56;;;;;;;8.43;4.25;;;;;;;;;;4971216;28;20453;-64
2022/04/11 04:51:21;;;;;;;9.50;5.10;;;;;;;;;;4971088;28;20045;-64
2022/04/11 04:53:46;;;;;;;11.77;4.90;;;;;;;;;;4970978;28;20033;-64
2022/04/11 04:56:12;;;;;;;11.40;4.95;;;;;;;;;;4972274;28;20523;-64
2022/04/11 04:58:37;;;;;;;11.00;5.10;;;;;;;;;;4970976;28;20448;-64
2022/04/11 05:01:02;;;;;;;13.48;5.20;;;;;;;;;;4971164;28;20741;-63
2022/04/11 05:03:27;;;;;;;11.85;5.15;;;;;;;;;;4972101;28;20528;-63
2022/04/11 05:05:54;;;;;;;14.20;5.70;;;;;;;;;;4971192;28;20417;-64
2022/04/11 05:08:20;;;;;;;11.20;4.85;;;;;;;;;;4970795;28;20428;-63
2022/04/11 05:10:45;;;;;;;8.32;4.28;;;;;;;;;;4970944;28;20306;-63
2022/04/11 05:13:10;;;;;;;10.73;5.75;;;;;;;;;;4970610;28;20321;-63
2022/04/11 05:15:35;;;;;;;7.53;4.75;;;;;;;;;;4970809;28;20109;-63
2022/04/11 05:18:01;;;;;;;13.73;5.25;;;;;;;;;;4970837;28;20037;-63
2022/04/11 05:20:26;;;;;;;13.70;4.93;;;;;;;;;;4970892;28;20081;-64
2022/04/11 05:22:51;;;;;;;13.00;5.43;;;;;;;;;;4970540;28;20395;-64
2022/04/11 05:25:17;;;;;;;10.05;5.55;;;;;;;;;;4971817;28;20037;-63
2022/04/11 05:27:42;;;;;;;9.10;4.60;;;;;;;;;;4971199;28;20341;-63
2022/04/11 05:30:08;;;;;;;10.13;4.63;;;;;;;;;;4970239;28;20348;-63
2022/04/11 05:32:33;;;;;;;8.55;4.40;;;;;;;;;;4970676;28;20422;-64
2022/04/11 05:34:59;;;;;;;9.73;5.10;;;;;;;;;;4970178;28;20099;-63
2022/04/11 05:37:24;;;;;;;7.60;4.38;;;;;;;;;;4970545;28;20455;-64
2022/04/11 05:39:50;;;;;;;9.20;4.78;;;;;;;;;;4970065;28;20456;-63
2022/04/11 05:42:15;;;;;;;10.05;4.20;;;;;;;;;;4970090;28;20453;-63
2022/04/11 05:44:40;;;;;;;8.55;4.38;;;;;;;;;;4970989;28;20029;-63
2022/04/11 05:47:06;;;;;;;9.10;4.20;;;;;;;;;;4971420;28;20427;-63
2022/04/11 05:49:31;;;;;;;8.32;4.65;;;;;;;;;;4969802;28;20029;-63
2022/04/11 05:51:56;;;;;;;8.70;4.20;;;;;;;;;;4970314;28;20120;-63
2022/04/11 05:54:22;;;;;;;8.73;4.63;;;;;;;;;;4781083;28;5001135;-63
2022/04/11 05:56:47;;;;;;;12.57;4.63;;;;;;;;;;4970065;28;20428;-63
2022/04/11 05:59:13;;;;;;;9.65;4.22;;;;;;;;;;4969789;28;20344;-63
2022/04/11 06:01:40;;;;;;;8.38;4.07;;;;;;;;;;4970620;28;20425;-64
2022/04/11 06:04:05;;;;;;;10.40;4.18;;;;;;;;;;4969445;28;20432;-63
2022/04/11 06:06:31;;;;;;;10.32;4.55;;;;;;;;;;4971025;28;20313;-64
2022/04/11 06:08:56;;;;;;;8.82;4.13;;;;;;;;;;4970076;28;20491;-63
2022/04/11 06:11:21;;;;;;;11.82;4.32;;;;;;;;;;4969789;28;20112;-64
2022/04/11 06:13:47;;;;;;;9.82;4.25;;;;;;;;;;4970401;28;20359;-64
2022/04/11 06:16:12;;;;;;;14.15;4.35;;;;;;;;;;4969816;28;20458;-64
2022/04/11 06:18:38;;;;;;;7.13;4.32;;;;;;;;;;4969538;28;20472;-64
2022/04/11 06:21:03;;;;;;;11.13;4.63;;;;;;;;;;4969572;28;20029;-63
2022/04/11 06:23:28;;;;;;;7.38;4.05;;;;;;;;;;4969317;28;20379;-63
2022/04/11 06:25:54;;;;;;;11.00;4.65;;;;;;;;;;4969362;28;20384;-64
2022/04/11 06:28:19;;;;;;;8.07;3.67;;;;;;;;;;4969027;28;20393;-64
2022/04/11 06:30:44;;;;;;;10.60;4.68;;;;;;;;;;4969812;28;20052;-64
2022/04/11 06:33:10;;;;;;;11.43;5.38;;;;;;;;;;4970953;28;20446;-63
2022/04/11 06:35:35;;;;;;;14.68;6.18;;;;;;;;;;4969617;28;20425;-64
2022/04/11 06:38:00;;;;;;;15.23;5.97;;;;;;;;;;4969248;28;20314;-63
2022/04/11 06:40:26;;;;;;;16.35;5.63;;;;;;;;;;4968976;28;20321;-63
2022/04/11 06:42:51;;;;;;;9.32;4.18;;;;;;;;;;4968829;28;20145;-63
2022/04/11 06:45:16;;;;;;;15.77;6.07;;;;;;;;;;4969288;28;20339;-64
2022/04/11 06:47:42;;;;;;;12.60;5.88;;;;;;;;;;4969299;28;20452;-64
2022/04/11 06:50:08;;;;;;;13.60;4.57;;;;;;;;;;4969231;28;20443;-64
2022/04/11 06:52:33;;;;;;;12.25;4.85;;;;;;;;;;4969014;28;20055;-64
2022/04/11 06:54:59;;;;;;;14.00;4.75;;;;;;;;;;4969521;28;20626;-64
2022/04/11 06:57:25;;;;;;;11.00;5.07;;;;;;;;;;4969552;28;20437;-64
2022/04/11 06:59:50;;;;;;;12.38;4.15;;;;;;;;;;4969893;28;20402;-66
2022/04/11 07:02:16;;;;;;;10.25;5.20;;;;;;;;;;4969039;28;20345;-64
2022/04/11 07:04:42;;;;;;;12.02;5.18;;;;;;;;;;4969979;28;20337;-64
2022/04/11 07:07:07;;;;;;;10.35;4.95;;;;;;;;;;4951103;28;20452;-64
2022/04/11 07:09:32;;;;;;;11.90;4.80;;;;;;;;;;4969813;28;20475;-64
2022/04/11 07:11:58;;;;;;;12.75;5.35;;;;;;;;;;4969375;28;20388;-64
2022/04/11 07:14:24;;;;;;;10.18;4.38;;;;;;;;;;4969133;28;20369;-64
2022/04/11 07:16:51;;;;;;;10.85;4.32;;;;;;;;;;4968825;28;20365;-63
2022/04/11 07:19:16;;;;;;;10.10;4.45;;;;;;;;;;4969614;28;20033;-64
2022/04/11 07:21:42;;;;;;;9.65;4.45;;;;;;;;;;4968881;28;20483;-64
2022/04/11 07:24:07;;;;;;;12.95;4.70;;;;;;;;;;4968795;28;20425;-64
2022/04/11 07:26:32;;;;;;;18.83;5.15;;;;;;;;;;4968769;28;20445;-63
2022/04/11 07:28:58;;;;;;;14.55;5.00;;;;;;;;;;4968890;28;20407;-64
2022/04/11 07:31:24;;;;;;;12.63;4.72;;;;;;;;;;4970335;28;20542;-64
2022/04/11 07:33:49;;;;;;;11.35;4.10;;;;;;;;;;4968886;28;20057;-64
2022/04/11 07:36:15;;;;;;;9.15;4.25;;;;;;;;;;4969673;28;20396;-64
2022/04/11 07:38:40;;;;;;;10.35;4.03;;;;;;;;;;4968407;28;20559;-64
2022/04/11 07:41:05;;;;;;;8.52;4.07;;;;;;;;;;4935490;28;20477;-63
2022/04/11 07:43:31;;;;;;;9.27;3.80;;;;;;;;;;4951184;28;20477;-64
2022/04/11 07:45:56;;;;;;;8.45;3.50;;;;;;;;;;4949130;28;20424;-63
2022/04/11 07:48:21;;;;;;;10.48;4.55;;;;;;;;;;4949344;28;20021;-64
2022/04/11 07:50:47;;;;;;;8.00;4.05;;;;;;;;;;4951153;28;20539;-64
2022/04/11 07:53:12;;;;;;;13.70;4.30;;;;;;;;;;4932747;28;21527;-63
2022/04/11 07:55:38;;;;;;;8.80;3.45;;;;;;;;;;4949097;28;20333;-64
2022/04/11 07:58:03;;;;;;;9.23;3.75;;;;;;;;;;4953067;28;20524;-64
2022/04/11 08:00:28;;;;;;;10.23;4.35;;;;;;;;;;4952520;28;20022;-63
2022/04/11 08:02:55;;;;;;;11.07;3.92;;;;;;;;;;4952726;28;20368;-65
2022/04/11 08:05:21;;;;;;;10.45;4.07;;;;;;;;;;4952610;28;20449;-64
2022/04/11 08:07:47;;;;;;;13.10;4.78;;;;;;;;;;4952443;28;20362;-64
2022/04/11 08:10:13;;;;;;;10.93;4.15;;;;;;;;;;4952682;28;20507;-64
2022/04/11 08:12:39;;;;;;;8.13;3.10;;;;;;;;;;4952108;28;20556;-65
2022/04/11 08:15:05;;;;;;;8.68;4.28;;;;;;;;;;4952228;28;20376;-64
2022/04/11 08:17:30;;;;;;;8.10;3.30;;;;;;;;;;4952830;28;20515;-64
2022/04/11 08:19:56;;;;;;;10.65;3.97;;;;;;;;;;4952515;28;20337;-64
2022/04/11 08:22:22;;;;;;;7.07;3.30;;;;;;;;;;4952081;28;20022;-64
2022/04/11 08:24:47;;;;;;;6.90;3.58;;;;;;;;;;4952256;28;20416;-64
2022/04/11 08:27:13;;;;;;;7.57;3.65;;;;;;;;;;4952434;28;20310;-64
2022/04/11 08:29:38;;;;;;;6.50;3.22;;;;;;;;;;4952616;28;20421;-64
2022/04/11 08:32:04;;;;;;;6.20;3.10;;;;;;;;;;4952129;28;20338;-64
2022/04/11 08:34:29;;;;;;;8.45;3.65;;;;;;;;;;4951963;28;20345;-64
2022/04/11 08:36:54;;;;;;;6.90;3.00;;;;;;;;;;4952833;28;20424;-64
2022/04/11 08:39:20;;;;;;;7.65;3.35;;;;;;;;;;4952004;28;20030;-64
2022/04/11 08:41:45;;;;;;;5.72;2.95;;;;;;;;;;4954947;28;20782;-64
2022/04/11 08:44:12;;;;;;;9.65;3.97;;;;;;;;;;4971149;28;20119;-63
2022/04/11 08:46:37;;;;;;;11.50;4.20;;;;;;;;;;4971521;28;20434;-65
2022/04/11 08:49:06;;;;;;;13.80;5.70;;;;;;;;;;4971101;28;20492;-64
2022/04/11 08:51:33;;;;;;;16.42;5.10;;;;;;;;;;4971553;28;20416;-64
2022/04/11 08:54:01;;;;;;;13.00;5.13;;;;;;;;;;4970808;28;20033;-64
2022/04/11 08:56:27;;;;;;;14.50;4.90;;;;;;;;;;4971908;28;20115;-64
2022/04/11 08:58:53;;;;;;;12.15;4.20;;;;;;;;;;4971220;28;20030;-64
2022/04/11 09:01:18;;;;;;;11.10;4.90;;;;;;;;;;4970471;28;20491;-64
2022/04/11 09:03:44;;;;;;;8.70;4.30;;;;;;;;;;4970449;28;20025;-64
2022/04/11 09:06:13;;;;;;;7.65;3.50;;;;;;;;;;4970614;28;20432;-64
2022/04/11 09:08:40;;;;;;;8.93;3.60;;;;;;;;;;4972051;28;20483;-64
2022/04/11 09:11:05;;;;;;;9.00;3.80;;;;;;;;;;4971672;28;20530;-64
2022/04/11 09:13:51;;;;;;;8.35;3.63;;;;;;;;;;4971564;28;20446;-64
2022/04/11 09:16:18;;;;;;;9.57;3.60;;;;;;;;;;4970662;28;20400;-64
2022/04/11 09:18:47;;;;;;;10.13;4.20;;;;;;;;;;4970573;28;20440;-64
2022/04/11 09:21:13;;;;;;;8.48;3.97;;;;;;;;;;4970723;28;20456;-64
2022/04/11 09:23:38;;;;;;;8.63;3.50;;;;;;;;;;4970484;28;20456;-64
2022/04/11 09:26:23;;;;;;;8.23;3.33;;;;;;;;;;4971181;28;20452;-64
2022/04/11 09:29:03;;;;;;;9.25;3.55;;;;;;;;;;4970510;28;20321;-64
2022/04/11 09:31:29;;;;;;;9.70;4.30;;;;;;;;;;4971351;28;20405;-64
2022/04/11 09:33:54;;;;;;;9.07;3.80;;;;;;;;;;4971372;28;20396;-65
2022/04/11 09:36:20;;;;;;;8.55;3.67;;;;;;;;;;4970659;28;20365;-64
2022/04/11 09:38:58;;;;;;;10.45;3.80;;;;;;;;;;4970727;28;20516;-64
2022/04/11 09:41:29;;;;;;;8.73;3.33;;;;;;;;;;4970498;28;20369;-64
2022/04/11 09:43:55;;;;;;;7.05;3.25;;;;;;;;;;4971573;28;20361;-64
2022/04/11 09:46:21;;;;;;;9.10;3.20;;;;;;;;;;4970453;28;20348;-64
2022/04/11 09:48:46;;;;;;;7.53;3.50;;;;;;;;;;4972238;28;20336;-63
2022/04/11 09:51:13;;;;;;;7.63;3.47;;;;;;;;;;4970770;28;20439;-64
2022/04/11 09:53:39;;;;;;;8.52;3.13;;;;;;;;;;4970103;28;20022;-66
2022/04/11 09:56:06;;;;;;;7.03;2.90;;;;;;;;;;4970399;28;20556;-64
2022/04/11 09:58:37;;;;;;;7.07;3.33;;;;;;;;;;4970146;28;20341;-64
2022/04/11 10:01:04;;;;;;;11.05;2.92;;;;;;;;;;4970785;28;20433;-64
2022/04/11 10:03:30;;;;;;;6.65;2.92;;;;;;;;;;4971773;28;20364;-64
2022/04/11 10:05:56;;;;;;;6.07;2.67;;;;;;;;;;4969728;28;20412;-64
2022/04/11 10:08:25;;;;;;;8.25;3.28;;;;;;;;;;4970447;28;20464;-64
2022/04/11 10:10:52;;;;;;;9.30;3.33;;;;;;;;;;4969742;28;20030;-64
2022/04/11 10:13:18;;;;;;;7.18;3.10;;;;;;;;;;4969625;28;20437;-64
2022/04/11 10:15:54;;;;;;;6.35;2.83;;;;;;;;;;4971288;28;20436;-64
2022/04/11 10:18:27;;;;;;;5.65;2.75;;;;;;;;;;4970108;28;20361;-64
2022/04/11 10:20:57;;;;;;;6.85;2.58;;;;;;;;;;4969946;28;20474;-64
2022/04/11 10:23:31;;;;;;;7.75;2.80;;;;;;;;;;4952351;28;20375;-64
2022/04/11 10:26:01;;;;;;;7.05;3.22;;;;;;;;;;4969651;28;20456;-64
2022/04/11 10:28:30;;;;;;;6.35;2.95;;;;;;;;;;4951978;28;20506;-64
2022/04/11 10:31:04;;;;;;;4.70;2.65;;;;;;;;;;4969923;28;20084;-64
2022/04/11 10:33:43;;;;;;;4.75;2.38;;;;;;;;;;4969708;28;20528;-64
2022/04/11 10:36:31;;;;;;;9.57;2.92;;;;;;;;;;4969156;28;20132;-64
2022/04/11 10:39:25;;;;;;;5.63;2.40;;;;;;;;;;4971151;28;20426;-64
2022/04/11 10:41:56;;;;;;;5.28;2.53;;;;;;;;;;4958542;28;20463;-65
2022/04/11 10:44:33;;;;;;;6.90;2.80;;;;;;;;;;4969073;28;20321;-64
2022/04/11 10:47:30;;;;;;;5.70;2.97;;;;;;;;;;4970292;28;20302;-64
2022/04/11 10:49:55;;;;;;;8.35;3.15;;;;;;;;;;4968769;28;20679;-64
2022/04/11 10:52:27;;;;;;;5.85;2.83;;;;;;;;;;4969234;28;20497;-64
2022/04/11 10:54:54;;;;;;;9.27;3.85;;;;;;;;;;4970799;28;20348;-64
2022/04/11 10:57:35;;;;;;;8.18;4.53;;;;;;;;;;4969545;28;20099;-64
2022/04/11 11:00:11;;;;;;;8.13;3.58;;;;;;;;;;4969631;28;20492;-64
2022/04/11 11:03:00;;;;;;;6.97;3.85;;;;;;;;;;4969193;28;20451;-64
2022/04/11 11:05:28;;;;;;;7.68;3.65;;;;;;;;;;4969274;28;20475;-65
2022/04/11 11:10:55;;;;;;;7.97;3.42;;;;;;;;;;4969501;28;20029;-63
2022/04/11 11:13:41;;;;;;;10.18;3.45;;;;;;;;;;4969406;28;20476;-64
2022/04/11 11:16:07;;;;;;;8.13;3.08;;;;;;;;;;4969098;28;20463;-64
2022/04/11 11:21:44;;;;;;;7.68;3.33;;;;;;;;;;4969265;28;20408;-64
2022/04/11 11:24:10;;;;;;;7.80;3.13;;;;;;;;;;4969302;28;20369;-64
2022/04/11 11:26:40;;;;;;;6.13;3.10;;;;;;;;;;4972352;28;20052;-64
2022/04/11 11:29:19;;;;;;;7.57;3.47;;;;;;;;;;4973479;28;20486;-64
2022/04/11 11:31:46;;;;;;;5.82;3.10;;;;;;;;;;4973988;28;20302;-64
2022/04/11 11:34:13;;;;;;;7.60;3.22;;;;;;;;;;4972816;28;20421;-64
2022/04/11 11:36:39;;;;;;;6.88;2.75;;;;;;;;;;4973634;28;20486;-63
2022/04/11 11:39:18;;;;;;;5.82;2.60;;;;;;;;;;4972842;28;20376;-64
2022/04/11 11:41:48;;;;;;;9.52;3.05;;;;;;;;;;4972529;28;20083;-64
2022/04/11 11:44:13;;;;;;;8.52;2.65;;;;;;;;;;4973011;28;20340;-64
2022/04/11 11:47:05;;;;;;;6.00;2.80;;;;;;;;;;4972695;28;20033;-64
2022/04/11 11:49:40;;;;;;;6.18;3.08;;;;;;;;;;4969286;28;20407;-63
2022/04/11 11:52:18;;;;;;;5.03;2.75;;;;;;;;;;4972307;28;20579;-64
2022/04/11 11:54:45;;;;;;;5.50;2.83;;;;;;;;;;4972805;28;20369;-63
2022/04/11 11:57:22;;;;;;;9.00;3.40;;;;;;;;;;4972730;28;20076;-63
2022/04/11 11:59:53;;;;;;;7.15;2.88;;;;;;;;;;4973228;28;20069;-64
2022/04/11 12:05:15;;;;;;;6.03;2.78;;;;;;;;;;4973067;28;20348;-64
2022/04/11 12:07:40;;;;;;;5.53;2.60;;;;;;;;;;4973470;28;20336;-64
2022/04/11 12:10:08;;;;;;;8.32;2.67;;;;;;;;;;4972368;28;20352;-63
2022/04/11 12:12:34;;;;;;;5.37;2.93;;;;;;;;;;4951793;28;20497;-63
2022/04/11 12:15:07;;;;;;;6.55;2.72;;;;;;;;;;4971339;28;20780;-64
2022/04/11 12:17:37;;;;;;;5.70;2.47;;;;;;;;;;4973036;28;20384;-64
2022/04/11 12:20:20;;;;;;;4.47;2.15;;;;;;;;;;4972274;28;20433;-64
2022/04/11 12:23:10;;;;;;;4.70;2.65;;;;;;;;;;4954546;28;20048;-63
2022/04/11 12:25:37;;;;;;;7.95;2.72;;;;;;;;;;4971819;28;20098;-64
2022/04/11 12:28:11;;;;;;;6.22;2.80;;;;;;;;;;4972153;28;20475;-63
2022/04/11 12:30:37;;;;;;;4.90;2.58;;;;;;;;;;4972937;28;20480;-64
2022/04/11 12:33:04;;;;;;;3.75;2.13;;;;;;;;;;4972826;28;20418;-63
2022/04/11 12:35:29;;;;;;;6.20;3.08;;;;;;;;;;4954464;28;20056;-64
2022/04/11 12:37:57;;;;;;;6.13;3.13;;;;;;;;;;4972006;28;20417;-64
2022/04/11 12:40:42;;;;;;;5.07;3.13;;;;;;;;;;4971561;28;20511;-64
2022/04/11 12:43:07;;;;;;;5.00;2.90;;;;;;;;;;4970201;28;20045;-64
2022/04/11 12:45:34;;;;;;;5.28;3.33;;;;;;;;;;4971157;28;20516;-63
2022/04/11 12:48:09;;;;;;;5.38;2.75;;;;;;;;;;4971920;28;20544;-64
2022/04/11 12:50:35;;;;;;;4.47;3.65;;;;;;;;;;4971092;28;20393;-64
2022/04/11 12:53:00;;;;;;;5.88;3.28;;;;;;;;;;4971609;28;20503;-63
2022/04/11 12:55:30;;;;;;;4.95;2.85;;;;;;;;;;4971086;28;20455;-64
2022/04/11 12:58:21;;;;;;;4.20;1.98;;;;;;;;;;4971798;28;20433;-64
2022/04/11 13:00:57;;;;;;;3.95;2.00;;;;;;;;;;4971508;28;20365;-64
2022/04/11 13:03:23;;;;;;;4.78;1.73;;;;;;;;;;4971228;28;20157;-63
2022/04/11 13:05:48;;;;;;;3.97;1.80;;;;;;;;;;4971040;28;20439;-64
2022/04/11 13:08:14;;;;;;;2.88;1.65;;;;;;;;;;4971388;28;20468;-64
2022/04/11 13:10:39;;;;;;;3.97;2.00;;;;;;;;;;4971471;28;20316;-63
2022/04/11 13:13:04;;;;;;;4.53;2.15;;;;;;;;;;4972387;28;20420;-64
2022/04/11 13:15:31;;;;;;;5.30;2.60;;;;;;;;;;4971066;28;20072;-64
2022/04/11 13:20:40;;;;;;;3.80;1.98;;;;;;;;;;4972505;28;20534;-64
2022/04/11 13:23:06;;;;;;;4.68;2.08;;;;;;;;;;4970509;28;20472;-64
2022/04/11 13:25:32;;;;;;;6.95;1.90;;;;;;;;;;4971507;28;20345;-65
2022/04/11 13:28:00;;;;;;;4.80;1.67;;;;;;;;;;4970589;28;20326;-64
2022/04/11 13:30:25;;;;;;;3.80;1.77;;;;;;;;;;4953058;28;20037;-64
2022/04/11 13:32:50;;;;;;;4.43;2.15;;;;;;;;;;4970725;28;20450;-64
2022/04/11 13:35:16;;;;;;;3.42;1.73;;;;;;;;;;4970673;28;20403;-65
2022/04/11 13:37:41;;;;;;;4.28;2.15;;;;;;;;;;4972239;28;20500;-64
2022/04/11 13:40:08;;;;;;;3.03;2.08;;;;;;;;;;4971267;28;20193;-65
2022/04/11 13:42:33;;;;;;;2.90;1.75;;;;;;;;;;4970125;28;20414;-65
2022/04/11 13:44:58;;;;;;;2.88;1.70;;;;;;;;;;4970198;28;20410;-64
2022/04/11 13:47:24;;;;;;;3.78;1.70;;;;;;;;;;4970016;28;20396;-64
2022/04/11 13:49:49;;;;;;;3.17;1.55;;;;;;;;;;4970504;28;20421;-64
2022/04/11 13:52:17;;;;;;;2.20;1.02;;;;;;;;;;4971518;28;20326;-64
2022/04/11 13:54:44;;;;;;;3.05;1.48;;;;;;;;;;4970423;28;20112;-64
2022/04/11 13:57:09;;;;;;;4.10;1.67;;;;;;;;;;4970202;28;20029;-64
2022/04/11 13:59:35;;;;;;;3.88;1.30;;;;;;;;;;4970107;28;20436;-64
2022/04/11 14:02:01;;;;;;;4.03;1.95;;;;;;;;;;4970349;28;20551;-65
2022/04/11 14:04:26;;;;;;;4.22;2.00;;;;;;;;;;4969980;28;20496;-65
2022/04/11 14:06:52;;;;;;;1.75;1.25;;;;;;;;;;4970884;28;20488;-64
2022/04/11 14:09:17;;;;;;;3.72;2.08;;;;;;;;;;4971301;28;20471;-65
2022/04/11 14:11:42;;;;;;;2.85;1.58;;;;;;;;;;4970095;28;20487;-64
2022/04/11 14:14:08;;;;;;;3.80;1.60;;;;;;;;;;4970102;28;20437;-65
2022/04/11 14:16:34;;;;;;;3.88;1.48;;;;;;;;;;4969990;28;20357;-64
2022/04/11 14:18:59;;;;;;;5.18;1.73;;;;;;;;;;4969835;28;20463;-65
2022/04/11 14:21:25;;;;;;;2.67;1.50;;;;;;;;;;4969832;28;20438;-65
2022/04/11 14:23:51;;;;;;;5.22;1.65;;;;;;;;;;4969763;28;20387;-65
2022/04/11 14:26:16;;;;;;;1.85;1.10;;;;;;;;;;4970221;28;20439;-64
2022/04/11 14:28:42;;;;;;;3.28;1.38;;;;;;;;;;4970239;28;20025;-64
2022/04/11 14:31:10;;;;;;;4.90;1.60;;;;;;;;;;4969846;28;20451;-65
2022/04/11 14:33:36;;;;;;;4.25;1.50;;;;;;;;;;4969752;28;20340;-65
2022/04/11 14:36:01;;;;;;;3.17;1.23;;;;;;;;;;4969490;28;20348;-65
2022/04/11 14:38:27;;;;;;;3.55;1.52;;;;;;;;;;4970949;28;20321;-65
2022/04/11 14:40:53;;;;;;;2.65;1.50;;;;;;;;;;4970246;28;20476;-65
2022/04/11 14:43:19;;;;;;;4.70;1.42;;;;;;;;;;4969700;28;20457;-64
2022/04/11 14:45:44;;;;;;;2.75;1.67;;;;;;;;;;4969079;28;20344;-64
2022/04/11 14:48:10;;;;;;;2.30;1.38;;;;;;;;;;4969378;28;20064;-65